sensor_id;sensor_type;location;lat;lon;timestamp;pressure;altitude;pressure_sealevel;temperature;humidity
50636;BME280;36598;46.054;11.130;2023-02-28T00:02:07;99590.03;;;5.14;46.12
50636;BME280;36598;46.054;11.130;2023-02-28T00:04:32;99595.41;;;5.34;45.27
50636;BME280;36598;46.054;11.130;2023-02-28T00:06:57;99592.81;;;5.18;45.63
50636;BME280;36598;46.054;11.130;2023-02-28T00:09:23;99588.00;;;4.85;46.73
50636;BME280;36598;46.054;11.130;2023-02-28T00:11:48;99583.53;;;4.76;46.72
50636;BME280;36598;46.054;11.130;2023-02-28T00:14:13;99594.56;;;5.30;45.88
50636;BME280;36598;46.054;11.130;2023-02-28T00:16:38;99593.59;;;5.45;44.78
50636;BME280;36598;46.054;11.130;2023-02-28T00:19:04;99598.34;;;5.21;45.53
50636;BME280;36598;46.054;11.130;2023-02-28T00:21:29;99598.06;;;5.57;44.86
50636;BME280;36598;46.054;11.130;2023-02-28T00:23:54;99596.03;;;5.23;44.78
50636;BME280;36598;46.054;11.130;2023-02-28T00:26:19;99597.13;;;4.69;46.30
50636;BME280;36598;46.054;11.130;2023-02-28T00:28:45;99596.88;;;5.27;45.27
50636;BME280;36598;46.054;11.130;2023-02-28T00:31:10;99604.38;;;5.57;45.15
50636;BME280;36598;46.054;11.130;2023-02-28T00:33:35;99603.19;;;5.58;45.05
50636;BME280;36598;46.054;11.130;2023-02-28T00:36:05;99596.31;;;5.71;44.04
50636;BME280;36598;46.054;11.130;2023-02-28T00:38:30;99608.53;;;5.74;44.45
50636;BME280;36598;46.054;11.130;2023-02-28T00:40:56;99603.53;;;5.53;44.88
50636;BME280;36598;46.054;11.130;2023-02-28T00:43:21;99596.53;;;5.59;44.94
50636;BME280;36598;46.054;11.130;2023-02-28T00:45:46;99598.41;;;5.82;44.78
50636;BME280;36598;46.054;11.130;2023-02-28T00:48:12;99596.44;;;5.78;45.07
50636;BME280;36598;46.054;11.130;2023-02-28T00:50:37;99597.78;;;5.92;44.18
50636;BME280;36598;46.054;11.130;2023-02-28T00:53:02;99593.97;;;6.00;43.97
50636;BME280;36598;46.054;11.130;2023-02-28T00:55:28;99602.75;;;6.13;45.03
50636;BME280;36598;46.054;11.130;2023-02-28T00:57:53;99611.50;;;6.22;44.94
50636;BME280;36598;46.054;11.130;2023-02-28T01:00:18;99615.72;;;6.16;43.95
50636;BME280;36598;46.054;11.130;2023-02-28T01:02:43;99612.13;;;5.82;44.93
50636;BME280;36598;46.054;11.130;2023-02-28T01:05:09;99614.34;;;5.99;44.19
50636;BME280;36598;46.054;11.130;2023-02-28T01:07:34;99616.78;;;6.04;44.71
50636;BME280;36598;46.054;11.130;2023-02-28T01:09:59;99611.09;;;6.23;44.38
50636;BME280;36598;46.054;11.130;2023-02-28T01:12:25;99613.50;;;6.28;43.71
50636;BME280;36598;46.054;11.130;2023-02-28T01:14:50;99606.09;;;6.33;43.91
50636;BME280;36598;46.054;11.130;2023-02-28T01:17:15;99610.56;;;6.44;44.75
50636;BME280;36598;46.054;11.130;2023-02-28T01:19:40;99606.88;;;6.33;45.04
50636;BME280;36598;46.054;11.130;2023-02-28T01:22:06;99613.06;;;6.23;44.73
50636;BME280;36598;46.054;11.130;2023-02-28T01:24:31;99612.44;;;6.03;45.73
50636;BME280;36598;46.054;11.130;2023-02-28T01:26:57;99622.06;;;6.20;44.80
50636;BME280;36598;46.054;11.130;2023-02-28T01:29:22;99619.69;;;6.18;44.51
50636;BME280;36598;46.054;11.130;2023-02-28T01:31:47;99630.84;;;6.33;44.62
50636;BME280;36598;46.054;11.130;2023-02-28T01:34:13;99629.41;;;6.12;44.97
50636;BME280;36598;46.054;11.130;2023-02-28T01:36:38;99627.25;;;5.95;45.45
50636;BME280;36598;46.054;11.130;2023-02-28T01:39:03;99620.06;;;5.87;45.38
50636;BME280;36598;46.054;11.130;2023-02-28T01:41:30;99627.66;;;5.97;45.37
50636;BME280;36598;46.054;11.130;2023-02-28T01:46:21;99634.19;;;5.09;47.97
50636;BME280;36598;46.054;11.130;2023-02-28T01:48:48;99634.44;;;5.23;46.95
50636;BME280;36598;46.054;11.130;2023-02-28T01:51:25;99631.81;;;5.57;46.55
50636;BME280;36598;46.054;11.130;2023-02-28T01:53:52;99632.41;;;5.73;45.98
50636;BME280;36598;46.054;11.130;2023-02-28T01:56:20;99625.66;;;5.94;46.10
50636;BME280;36598;46.054;11.130;2023-02-28T01:58:49;99631.75;;;6.10;44.98
50636;BME280;36598;46.054;11.130;2023-02-28T02:01:16;99628.28;;;6.13;45.64
50636;BME280;36598;46.054;11.130;2023-02-28T02:03:47;99638.94;;;6.18;45.27
50636;BME280;36598;46.054;11.130;2023-02-28T02:06:13;99640.56;;;5.66;46.10
50636;BME280;36598;46.054;11.130;2023-02-28T02:08:38;99642.81;;;5.57;45.87
50636;BME280;36598;46.054;11.130;2023-02-28T02:11:03;99636.94;;;5.89;45.71
50636;BME280;36598;46.054;11.130;2023-02-28T02:21:10;99638.31;;;6.02;45.69
50636;BME280;36598;46.054;11.130;2023-02-28T02:31:33;99642.78;;;6.14;45.37
50636;BME280;36598;46.054;11.130;2023-02-28T02:36:49;99643.19;;;5.86;46.22
50636;BME280;36598;46.054;11.130;2023-02-28T02:39:38;99648.91;;;5.47;47.93
50636;BME280;36598;46.054;11.130;2023-02-28T02:42:08;99647.31;;;5.72;47.41
50636;BME280;36598;46.054;11.130;2023-02-28T02:44:39;99654.38;;;5.73;47.90
50636;BME280;36598;46.054;11.130;2023-02-28T02:47:10;99650.38;;;5.94;46.43
50636;BME280;36598;46.054;11.130;2023-02-28T02:49:38;99644.56;;;5.99;46.38
50636;BME280;36598;46.054;11.130;2023-02-28T02:52:08;99651.31;;;6.05;46.27
50636;BME280;36598;46.054;11.130;2023-02-28T02:54:36;99656.25;;;6.22;46.12
50636;BME280;36598;46.054;11.130;2023-02-28T02:57:04;99655.69;;;6.10;46.55
50636;BME280;36598;46.054;11.130;2023-02-28T02:59:31;99656.41;;;6.37;45.64
50636;BME280;36598;46.054;11.130;2023-02-28T03:01:58;99661.09;;;5.76;46.07
50636;BME280;36598;46.054;11.130;2023-02-28T03:04:25;99664.16;;;5.97;45.98
50636;BME280;36598;46.054;11.130;2023-02-28T03:06:52;99664.75;;;5.84;47.00
50636;BME280;36598;46.054;11.130;2023-02-28T03:09:22;99666.22;;;6.04;46.10
50636;BME280;36598;46.054;11.130;2023-02-28T03:11:48;99661.56;;;6.08;46.11
50636;BME280;36598;46.054;11.130;2023-02-28T03:24:25;99667.84;;;6.09;47.85
50636;BME280;36598;46.054;11.130;2023-02-28T03:26:54;99660.63;;;6.27;46.98
50636;BME280;36598;46.054;11.130;2023-02-28T03:29:33;99665.22;;;5.63;47.94
50636;BME280;36598;46.054;11.130;2023-02-28T03:32:03;99667.31;;;5.46;47.93
50636;BME280;36598;46.054;11.130;2023-02-28T03:36:57;99661.00;;;5.95;47.12
50636;BME280;36598;46.054;11.130;2023-02-28T03:39:29;99672.56;;;6.08;46.88
50636;BME280;36598;46.054;11.130;2023-02-28T03:41:57;99670.38;;;6.24;47.25
50636;BME280;36598;46.054;11.130;2023-02-28T03:44:26;99665.16;;;5.86;47.63
50636;BME280;36598;46.054;11.130;2023-02-28T03:46:56;99679.59;;;5.52;48.03
50636;BME280;36598;46.054;11.130;2023-02-28T03:49:24;99669.91;;;5.36;48.47
50636;BME280;36598;46.054;11.130;2023-02-28T03:51:51;99678.94;;;5.13;49.42
50636;BME280;36598;46.054;11.130;2023-02-28T03:54:20;99676.69;;;5.19;49.37
50636;BME280;36598;46.054;11.130;2023-02-28T03:57:02;99684.44;;;5.63;48.72
50636;BME280;36598;46.054;11.130;2023-02-28T03:59:37;99685.81;;;5.76;48.30
50636;BME280;36598;46.054;11.130;2023-02-28T04:02:05;99681.91;;;5.77;47.94
50636;BME280;36598;46.054;11.130;2023-02-28T04:04:30;99683.53;;;5.82;48.42
50636;BME280;36598;46.054;11.130;2023-02-28T04:07:06;99692.81;;;5.96;47.90
50636;BME280;36598;46.054;11.130;2023-02-28T04:09:32;99692.53;;;6.05;47.58
50636;BME280;36598;46.054;11.130;2023-02-28T04:11:58;99692.47;;;5.25;48.71
50636;BME280;36598;46.054;11.130;2023-02-28T04:14:23;99691.09;;;5.88;47.66
50636;BME280;36598;46.054;11.130;2023-02-28T04:16:49;99694.94;;;6.10;46.81
50636;BME280;36598;46.054;11.130;2023-02-28T04:19:16;99687.38;;;6.03;47.12
50636;BME280;36598;46.054;11.130;2023-02-28T04:21:42;99683.44;;;6.01;46.97
50636;BME280;36598;46.054;11.130;2023-02-28T04:24:09;99686.19;;;5.74;47.90
50636;BME280;36598;46.054;11.130;2023-02-28T04:26:39;99683.22;;;5.87;47.28
50636;BME280;36598;46.054;11.130;2023-02-28T04:29:05;99676.63;;;5.91;46.33
50636;BME280;36598;46.054;11.130;2023-02-28T04:31:30;99683.34;;;5.94;46.82
50636;BME280;36598;46.054;11.130;2023-02-28T04:33:56;99687.38;;;5.50;47.37
50636;BME280;36598;46.054;11.130;2023-02-28T04:36:21;99687.03;;;5.78;46.99
50636;BME280;36598;46.054;11.130;2023-02-28T04:38:48;99686.47;;;5.69;46.62
50636;BME280;36598;46.054;11.130;2023-02-28T04:41:13;99689.03;;;5.55;46.76
50636;BME280;36598;46.054;11.130;2023-02-28T04:43:39;99686.28;;;5.55;46.89
50636;BME280;36598;46.054;11.130;2023-02-28T04:46:04;99678.91;;;5.59;46.87
50636;BME280;36598;46.054;11.130;2023-02-28T04:48:31;99685.44;;;5.51;47.21
50636;BME280;36598;46.054;11.130;2023-02-28T04:51:03;99693.06;;;5.61;46.43
50636;BME280;36598;46.054;11.130;2023-02-28T04:53:30;99686.59;;;5.50;46.95
50636;BME280;36598;46.054;11.130;2023-02-28T04:55:56;99688.91;;;5.48;46.31
50636;BME280;36598;46.054;11.130;2023-02-28T04:58:21;99688.41;;;5.65;45.93
50636;BME280;36598;46.054;11.130;2023-02-28T05:03:23;99687.25;;;5.66;45.69
50636;BME280;36598;46.054;11.130;2023-02-28T05:05:48;99691.03;;;5.58;45.38
50636;BME280;36598;46.054;11.130;2023-02-28T05:08:13;99693.31;;;5.52;45.46
50636;BME280;36598;46.054;11.130;2023-02-28T05:10:38;99698.31;;;5.47;45.79
50636;BME280;36598;46.054;11.130;2023-02-28T05:13:04;99694.50;;;5.55;46.06
50636;BME280;36598;46.054;11.130;2023-02-28T05:15:29;99698.97;;;5.63;45.80
50636;BME280;36598;46.054;11.130;2023-02-28T05:17:54;99692.94;;;5.81;45.17
50636;BME280;36598;46.054;11.130;2023-02-28T05:20:20;99705.94;;;5.57;45.87
50636;BME280;36598;46.054;11.130;2023-02-28T05:22:46;99703.13;;;5.53;45.89
50636;BME280;36598;46.054;11.130;2023-02-28T05:25:12;99704.31;;;5.56;45.85
50636;BME280;36598;46.054;11.130;2023-02-28T05:27:38;99707.84;;;5.57;45.89
50636;BME280;36598;46.054;11.130;2023-02-28T05:30:04;99708.69;;;5.57;46.40
50636;BME280;36598;46.054;11.130;2023-02-28T05:32:31;99702.50;;;5.64;46.40
50636;BME280;36598;46.054;11.130;2023-02-28T05:34:56;99706.47;;;5.66;47.34
50636;BME280;36598;46.054;11.130;2023-02-28T05:37:21;99705.94;;;5.84;46.84
50636;BME280;36598;46.054;11.130;2023-02-28T05:39:47;99710.97;;;5.55;47.81
50636;BME280;36598;46.054;11.130;2023-02-28T05:42:13;99710.88;;;5.48;47.98
50636;BME280;36598;46.054;11.130;2023-02-28T05:44:38;99709.28;;;5.70;48.14
50636;BME280;36598;46.054;11.130;2023-02-28T05:47:03;99714.22;;;4.92;49.42
50636;BME280;36598;46.054;11.130;2023-02-28T05:49:28;99714.59;;;4.71;50.35
50636;BME280;36598;46.054;11.130;2023-02-28T05:51:54;99714.91;;;5.08;49.66
50636;BME280;36598;46.054;11.130;2023-02-28T05:54:19;99708.53;;;5.23;49.12
50636;BME280;36598;46.054;11.130;2023-02-28T05:56:44;99714.19;;;5.34;48.97
50636;BME280;36598;46.054;11.130;2023-02-28T05:59:11;99720.59;;;5.42;49.09
50636;BME280;36598;46.054;11.130;2023-02-28T06:01:37;99718.50;;;5.12;48.73
50636;BME280;36598;46.054;11.130;2023-02-28T06:04:03;99719.53;;;5.04;48.72
50636;BME280;36598;46.054;11.130;2023-02-28T06:06:29;99728.06;;;4.99;48.57
50636;BME280;36598;46.054;11.130;2023-02-28T06:08:55;99723.03;;;5.24;48.23
50636;BME280;36598;46.054;11.130;2023-02-28T06:11:21;99733.81;;;5.13;48.73
50636;BME280;36598;46.054;11.130;2023-02-28T06:13:46;99738.00;;;5.07;48.97
50636;BME280;36598;46.054;11.130;2023-02-28T06:16:12;99740.31;;;4.63;49.89
50636;BME280;36598;46.054;11.130;2023-02-28T06:18:37;99738.38;;;4.63;49.83
50636;BME280;36598;46.054;11.130;2023-02-28T06:21:02;99742.75;;;4.68;50.50
50636;BME280;36598;46.054;11.130;2023-02-28T06:23:28;99746.22;;;4.65;50.38
50636;BME280;36598;46.054;11.130;2023-02-28T06:25:53;99745.09;;;5.08;48.82
50636;BME280;36598;46.054;11.130;2023-02-28T06:28:22;99754.31;;;5.19;49.04
50636;BME280;36598;46.054;11.130;2023-02-28T06:30:47;99753.88;;;5.40;47.94
50636;BME280;36598;46.054;11.130;2023-02-28T06:33:13;99759.47;;;5.01;49.32
50636;BME280;36598;46.054;11.130;2023-02-28T06:35:38;99761.59;;;5.12;49.26
50636;BME280;36598;46.054;11.130;2023-02-28T06:38:03;99766.06;;;5.20;48.84
50636;BME280;36598;46.054;11.130;2023-02-28T06:40:29;99761.88;;;5.49;48.68
50636;BME280;36598;46.054;11.130;2023-02-28T06:42:58;99755.50;;;5.68;48.13
50636;BME280;36598;46.054;11.130;2023-02-28T06:45:24;99750.31;;;5.63;48.10
50636;BME280;36598;46.054;11.130;2023-02-28T06:47:51;99752.47;;;5.50;48.27
50636;BME280;36598;46.054;11.130;2023-02-28T06:50:17;99762.44;;;5.85;47.98
50636;BME280;36598;46.054;11.130;2023-02-28T06:52:45;99768.72;;;5.36;48.05
50636;BME280;36598;46.054;11.130;2023-02-28T06:55:11;99774.72;;;5.22;48.62
50636;BME280;36598;46.054;11.130;2023-02-28T06:57:36;99770.94;;;5.07;48.65
50636;BME280;36598;46.054;11.130;2023-02-28T07:00:06;99770.06;;;4.84;48.80
50636;BME280;36598;46.054;11.130;2023-02-28T07:02:32;99774.53;;;5.11;48.98
50636;BME280;36598;46.054;11.130;2023-02-28T07:04:58;99773.75;;;5.34;48.00
50636;BME280;36598;46.054;11.130;2023-02-28T07:07:23;99764.44;;;5.61;47.82
50636;BME280;36598;46.054;11.130;2023-02-28T07:09:48;99767.19;;;5.88;47.11
50636;BME280;36598;46.054;11.130;2023-02-28T07:12:14;99760.53;;;5.89;46.74
50636;BME280;36598;46.054;11.130;2023-02-28T07:14:39;99753.75;;;6.06;46.86
50636;BME280;36598;46.054;11.130;2023-02-28T07:17:06;99752.53;;;6.03;46.61
50636;BME280;36598;46.054;11.130;2023-02-28T07:19:31;99754.03;;;5.97;46.88
50636;BME280;36598;46.054;11.130;2023-02-28T07:21:56;99747.56;;;6.42;46.25
50636;BME280;36598;46.054;11.130;2023-02-28T07:24:22;99753.06;;;6.42;46.14
50636;BME280;36598;46.054;11.130;2023-02-28T07:26:50;99743.56;;;6.06;46.63
50636;BME280;36598;46.054;11.130;2023-02-28T07:29:16;99749.63;;;5.69;47.82
50636;BME280;36598;46.054;11.130;2023-02-28T07:31:41;99757.47;;;5.67;47.13
50636;BME280;36598;46.054;11.130;2023-02-28T07:34:06;99758.75;;;5.50;47.63
50636;BME280;36598;46.054;11.130;2023-02-28T07:36:32;99754.31;;;5.65;47.10
50636;BME280;36598;46.054;11.130;2023-02-28T07:38:57;99747.03;;;6.63;45.54
50636;BME280;36598;46.054;11.130;2023-02-28T07:41:23;99758.03;;;6.63;45.07
50636;BME280;36598;46.054;11.130;2023-02-28T07:43:53;99749.22;;;7.18;43.79
50636;BME280;36598;46.054;11.130;2023-02-28T07:46:18;99756.75;;;9.61;39.79
50636;BME280;36598;46.054;11.130;2023-02-28T07:48:46;99744.25;;;13.78;31.64
50636;BME280;36598;46.054;11.130;2023-02-28T07:51:11;99737.84;;;15.73;28.43
50636;BME280;36598;46.054;11.130;2023-02-28T07:53:37;99741.16;;;16.59;26.63
50636;BME280;36598;46.054;11.130;2023-02-28T07:56:03;99749.31;;;17.21;25.78
50636;BME280;36598;46.054;11.130;2023-02-28T07:58:29;99746.97;;;16.65;26.09
50636;BME280;36598;46.054;11.130;2023-02-28T08:00:55;99747.44;;;15.89;26.93
50636;BME280;36598;46.054;11.130;2023-02-28T08:03:21;99752.75;;;14.58;28.38
50636;BME280;36598;46.054;11.130;2023-02-28T08:05:46;99755.03;;;17.81;24.86
50636;BME280;36598;46.054;11.130;2023-02-28T08:08:12;99741.53;;;20.93;21.01
50636;BME280;36598;46.054;11.130;2023-02-28T08:10:37;99746.31;;;19.23;22.19
50636;BME280;36598;46.054;11.130;2023-02-28T08:13:03;99737.78;;;24.69;17.23
50636;BME280;36598;46.054;11.130;2023-02-28T08:15:28;99735.66;;;23.12;18.55
50636;BME280;36598;46.054;11.130;2023-02-28T08:17:53;99743.34;;;25.85;16.32
50636;BME280;36598;46.054;11.130;2023-02-28T08:20:21;99733.06;;;23.94;17.64
50636;BME280;36598;46.054;11.130;2023-02-28T08:22:46;99747.31;;;22.61;18.80
50636;BME280;36598;46.054;11.130;2023-02-28T08:25:11;99746.75;;;23.16;17.98
50636;BME280;36598;46.054;11.130;2023-02-28T08:27:37;99742.91;;;24.45;16.70
50636;BME280;36598;46.054;11.130;2023-02-28T08:30:02;99748.44;;;25.75;16.17
50636;BME280;36598;46.054;11.130;2023-02-28T08:32:28;99739.84;;;27.00;14.69
50636;BME280;36598;46.054;11.130;2023-02-28T08:34:53;99735.47;;;25.63;15.37
50636;BME280;36598;46.054;11.130;2023-02-28T08:37:18;99738.56;;;27.46;14.32
50636;BME280;36598;46.054;11.130;2023-02-28T08:39:44;99740.44;;;28.18;13.89
50636;BME280;36598;46.054;11.130;2023-02-28T08:42:09;99741.41;;;27.46;14.30
50636;BME280;36598;46.054;11.130;2023-02-28T08:44:34;99742.47;;;29.42;12.98
50636;BME280;36598;46.054;11.130;2023-02-28T08:47:00;99745.50;;;27.67;14.01
50636;BME280;36598;46.054;11.130;2023-02-28T08:49:25;99736.00;;;29.41;12.92
50636;BME280;36598;46.054;11.130;2023-02-28T08:51:50;99728.91;;;29.78;12.69
50636;BME280;36598;46.054;11.130;2023-02-28T08:54:15;99730.50;;;29.19;13.15
50636;BME280;36598;46.054;11.130;2023-02-28T08:56:44;99717.53;;;31.24;11.57
50636;BME280;36598;46.054;11.130;2023-02-28T08:59:09;99726.31;;;29.56;12.51
50636;BME280;36598;46.054;11.130;2023-02-28T09:01:35;99725.28;;;29.78;11.87
50636;BME280;36598;46.054;11.130;2023-02-28T09:04:01;99722.88;;;28.09;13.48
50636;BME280;36598;46.054;11.130;2023-02-28T09:06:27;99719.25;;;28.66;13.17
50636;BME280;36598;46.054;11.130;2023-02-28T09:08:52;99729.41;;;30.01;11.83
50636;BME280;36598;46.054;11.130;2023-02-28T09:11:18;99728.56;;;26.29;14.43
50636;BME280;36598;46.054;11.130;2023-02-28T09:13:44;99736.13;;;27.95;13.36
50636;BME280;36598;46.054;11.130;2023-02-28T09:16:10;99724.53;;;28.87;12.79
50636;BME280;36598;46.054;11.130;2023-02-28T09:18:36;99721.34;;;28.60;12.96
50636;BME280;36598;46.054;11.130;2023-02-28T09:21:03;99724.25;;;29.26;12.63
50636;BME280;36598;46.054;11.130;2023-02-28T09:23:28;99724.78;;;28.89;13.01
50636;BME280;36598;46.054;11.130;2023-02-28T09:25:54;99723.34;;;31.90;11.07
50636;BME280;36598;46.054;11.130;2023-02-28T09:28:20;99726.50;;;32.39;10.91
50636;BME280;36598;46.054;11.130;2023-02-28T09:30:46;99723.00;;;31.22;11.09
50636;BME280;36598;46.054;11.130;2023-02-28T09:33:12;99725.22;;;33.17;10.14
50636;BME280;36598;46.054;11.130;2023-02-28T09:35:38;99724.31;;;32.66;9.92
50636;BME280;36598;46.054;11.130;2023-02-28T09:38:03;99717.03;;;32.31;10.82
50636;BME280;36598;46.054;11.130;2023-02-28T09:40:29;99721.94;;;29.98;11.92
50636;BME280;36598;46.054;11.130;2023-02-28T09:42:55;99721.00;;;29.90;12.40
50636;BME280;36598;46.054;11.130;2023-02-28T09:47:47;99706.06;;;31.10;10.96
50636;BME280;36598;46.054;11.130;2023-02-28T09:52:48;99709.16;;;30.05;12.31
50636;BME280;36598;46.054;11.130;2023-02-28T09:57:40;99719.03;;;30.04;12.37
50636;BME280;36598;46.054;11.130;2023-02-28T10:00:19;99710.19;;;30.26;11.87
50636;BME280;36598;46.054;11.130;2023-02-28T10:05:47;99709.09;;;30.67;11.52
50636;BME280;36598;46.054;11.130;2023-02-28T10:08:18;99700.78;;;31.01;11.50
50636;BME280;36598;46.054;11.130;2023-02-28T10:11:11;99696.22;;;30.23;11.66
50636;BME280;36598;46.054;11.130;2023-02-28T10:16:25;99688.00;;;30.13;11.57
50636;BME280;36598;46.054;11.130;2023-02-28T10:18:52;99695.38;;;28.28;11.91
50636;BME280;36598;46.054;11.130;2023-02-28T10:21:44;99681.09;;;31.96;9.97
50636;BME280;36598;46.054;11.130;2023-02-28T10:24:12;99686.47;;;30.12;11.06
50636;BME280;36598;46.054;11.130;2023-02-28T10:26:41;99678.44;;;31.58;10.65
50636;BME280;36598;46.054;11.130;2023-02-28T10:29:08;99676.81;;;32.37;10.05
50636;BME280;36598;46.054;11.130;2023-02-28T10:31:34;99669.44;;;31.54;10.42
50636;BME280;36598;46.054;11.130;2023-02-28T10:34:00;99668.25;;;29.53;11.92
50636;BME280;36598;46.054;11.130;2023-02-28T10:36:25;99671.63;;;31.88;10.71
50636;BME280;36598;46.054;11.130;2023-02-28T10:38:50;99669.41;;;29.88;10.94
50636;BME280;36598;46.054;11.130;2023-02-28T10:41:17;99674.81;;;30.10;11.38
50636;BME280;36598;46.054;11.130;2023-02-28T10:43:51;99659.47;;;32.22;9.98
50636;BME280;36598;46.054;11.130;2023-02-28T10:46:17;99659.69;;;29.29;11.75
50636;BME280;36598;46.054;11.130;2023-02-28T10:49:13;99659.13;;;28.34;12.26
50636;BME280;36598;46.054;11.130;2023-02-28T10:51:37;99663.47;;;32.05;10.19
50636;BME280;36598;46.054;11.130;2023-02-28T10:54:03;99668.38;;;30.29;11.17
50636;BME280;36598;46.054;11.130;2023-02-28T10:56:29;99648.88;;;30.84;10.96
50636;BME280;36598;46.054;11.130;2023-02-28T11:01:24;99643.25;;;32.24;9.88
50636;BME280;36598;46.054;11.130;2023-02-28T11:03:50;99647.53;;;31.70;10.21
50636;BME280;36598;46.054;11.130;2023-02-28T11:06:20;99642.25;;;29.62;11.53
50636;BME280;36598;46.054;11.130;2023-02-28T11:08:50;99641.84;;;27.74;12.69
50636;BME280;36598;46.054;11.130;2023-02-28T11:11:16;99632.19;;;29.99;11.44
50636;BME280;36598;46.054;11.130;2023-02-28T11:13:45;99636.09;;;26.77;13.15
50636;BME280;36598;46.054;11.130;2023-02-28T11:16:12;99630.53;;;25.40;14.04
50636;BME280;36598;46.054;11.130;2023-02-28T11:21:06;99621.91;;;26.77;13.60
50636;BME280;36598;46.054;11.130;2023-02-28T11:23:34;99620.25;;;25.48;13.86
50636;BME280;36598;46.054;11.130;2023-02-28T11:26:02;99620.97;;;24.11;15.25
50636;BME280;36598;46.054;11.130;2023-02-28T11:33:55;99607.41;;;23.34;16.10
50636;BME280;36598;46.054;11.130;2023-02-28T11:36:25;99595.56;;;25.55;14.97
50636;BME280;36598;46.054;11.130;2023-02-28T11:38:51;99588.31;;;25.48;14.50
50636;BME280;36598;46.054;11.130;2023-02-28T11:49:32;99569.28;;;25.06;14.53
50636;BME280;36598;46.054;11.130;2023-02-28T11:57:03;99569.44;;;24.28;15.74
50636;BME280;36598;46.054;11.130;2023-02-28T12:07:20;99559.84;;;22.27;17.57
50636;BME280;36598;46.054;11.130;2023-02-28T12:20:21;99528.13;;;19.92;19.47
50636;BME280;36598;46.054;11.130;2023-02-28T12:27:58;99522.38;;;18.63;21.61
50636;BME280;36598;46.054;11.130;2023-02-28T12:30:25;99514.69;;;19.13;20.83
50636;BME280;36598;46.054;11.130;2023-02-28T12:33:02;99510.19;;;19.34;21.25
50636;BME280;36598;46.054;11.130;2023-02-28T12:35:47;99508.91;;;18.49;23.44
50636;BME280;36598;46.054;11.130;2023-02-28T12:38:27;99500.47;;;17.77;21.34
50636;BME280;36598;46.054;11.130;2023-02-28T12:41:00;99493.66;;;18.10;21.36
50636;BME280;36598;46.054;11.130;2023-02-28T12:43:28;99496.09;;;17.76;21.53
50636;BME280;36598;46.054;11.130;2023-02-28T12:45:57;99496.81;;;17.11;22.97
50636;BME280;36598;46.054;11.130;2023-02-28T12:48:26;99488.72;;;18.23;22.29
50636;BME280;36598;46.054;11.130;2023-02-28T12:50:52;99481.66;;;18.90;21.34
50636;BME280;36598;46.054;11.130;2023-02-28T12:56:08;99481.97;;;19.01;21.21
50636;BME280;36598;46.054;11.130;2023-02-28T12:58:45;99473.81;;;17.51;21.96
50636;BME280;36598;46.054;11.130;2023-02-28T13:06:33;99457.25;;;17.79;21.76
50636;BME280;36598;46.054;11.130;2023-02-28T13:11:32;99452.19;;;18.26;20.79
50636;BME280;36598;46.054;11.130;2023-02-28T13:13:58;99454.88;;;17.55;21.99
50636;BME280;36598;46.054;11.130;2023-02-28T13:16:24;99437.13;;;18.02;22.09
50636;BME280;36598;46.054;11.130;2023-02-28T13:18:49;99439.34;;;17.54;22.41
50636;BME280;36598;46.054;11.130;2023-02-28T13:21:26;99438.94;;;17.43;22.73
50636;BME280;36598;46.054;11.130;2023-02-28T13:29:04;99439.22;;;16.66;22.49
50636;BME280;36598;46.054;11.130;2023-02-28T13:34:36;99431.41;;;17.31;22.30
50636;BME280;36598;46.054;11.130;2023-02-28T13:47:28;99411.50;;;16.59;22.46
50636;BME280;36598;46.054;11.130;2023-02-28T13:49:54;99408.47;;;15.93;22.93
50636;BME280;36598;46.054;11.130;2023-02-28T13:52:22;99414.06;;;15.93;23.20
50636;BME280;36598;46.054;11.130;2023-02-28T14:00:34;99406.78;;;16.09;23.53
50636;BME280;36598;46.054;11.130;2023-02-28T14:05:38;99399.16;;;15.71;23.82
50636;BME280;36598;46.054;11.130;2023-02-28T14:08:17;99396.97;;;16.04;23.41
50636;BME280;36598;46.054;11.130;2023-02-28T14:10:49;99397.56;;;16.59;22.19
50636;BME280;36598;46.054;11.130;2023-02-28T14:16:00;99397.41;;;15.64;23.44
50636;BME280;36598;46.054;11.130;2023-02-28T14:18:30;99391.59;;;15.97;23.60
50636;BME280;36598;46.054;11.130;2023-02-28T14:21:08;99391.25;;;16.20;23.62
50636;BME280;36598;46.054;11.130;2023-02-28T14:31:09;99387.56;;;14.89;25.04
50636;BME280;36598;46.054;11.130;2023-02-28T14:33:48;99374.81;;;15.04;25.13
50636;BME280;36598;46.054;11.130;2023-02-28T14:36:24;99381.97;;;14.27;25.59
50636;BME280;36598;46.054;11.130;2023-02-28T14:38:56;99382.06;;;14.23;25.57
50636;BME280;36598;46.054;11.130;2023-02-28T14:41:30;99373.09;;;14.94;25.21
50636;BME280;36598;46.054;11.130;2023-02-28T14:43:56;99375.63;;;15.17;25.03
50636;BME280;36598;46.054;11.130;2023-02-28T14:46:22;99371.13;;;15.07;25.21
50636;BME280;36598;46.054;11.130;2023-02-28T14:48:49;99369.88;;;14.66;25.70
50636;BME280;36598;46.054;11.130;2023-02-28T14:51:19;99364.84;;;14.28;26.29
50636;BME280;36598;46.054;11.130;2023-02-28T14:53:48;99365.81;;;14.84;25.41
50636;BME280;36598;46.054;11.130;2023-02-28T14:56:56;99362.06;;;15.03;24.91
50636;BME280;36598;46.054;11.130;2023-02-28T14:59:03;99361.63;;;15.34;25.51
50636;BME280;36598;46.054;11.130;2023-02-28T15:01:28;99365.31;;;15.43;24.30
50636;BME280;36598;46.054;11.130;2023-02-28T15:04:06;99361.28;;;15.44;24.41
50636;BME280;36598;46.054;11.130;2023-02-28T15:06:32;99357.28;;;15.45;24.16
50636;BME280;36598;46.054;11.130;2023-02-28T15:11:53;99358.19;;;15.42;24.95
50636;BME280;36598;46.054;11.130;2023-02-28T15:14:20;99364.13;;;15.15;25.51
50636;BME280;36598;46.054;11.130;2023-02-28T15:16:47;99361.06;;;14.68;26.11
50636;BME280;36598;46.054;11.130;2023-02-28T15:19:30;99358.56;;;14.57;26.42
50636;BME280;36598;46.054;11.130;2023-02-28T15:22:07;99366.03;;;14.44;27.06
50636;BME280;36598;46.054;11.130;2023-02-28T15:24:43;99368.78;;;13.78;27.56